• Join FlightAware (Why Join?)
  • Login
  • US Flag 
02:48AM EDT


 

Airport Tracker/Info


-or-


 

Live Flight TrackerFlight Track Log ✈ UPS2020 ✈ 26-Sep-2013 ✈ KDFW - KBOS

Flight Track Log - Related Links

Times and Time Zones

All times are in EDT time to prevent confusion due to time zone crossing. See the UPS2020 flight status page for this flight to view local times or setup timezone preferences in your user account.

Time Position Orientation Groundspeed Altitude Reporting Facility
EDT Latitude Longitude Course Direction KTS MPH feet Rate Location/Type
03:31PM 32.8880 -97.0300 181° South 151 174 1,600  Level FlightAware
03:32PM 32.8700 -97.0300 180° South 156 180 2,600 2,340 Climbing FlightAware
03:32PM 32.8430 -97.0250 171° South 196 226 3,800 2,100 Climbing FlightAware
03:33PM 32.8230 -97.0160 159° South 230 265 4,600 2,340 Climbing FlightAware
03:33PM 32.8010 -97.0070 161° South 246 283 5,500 2,700 Climbing FlightAware
03:33PM 32.7860 -96.9980 153° Southeast 256 295 6,200 3,300 Climbing FlightAware
03:33PM 32.7810 -96.9930 140° Southeast 260 299 6,600 4,500 Climbing FlightAware
03:34PM 32.7760 -96.9830 121° Southeast 262 302 7,100 3,000 Climbing FlightAware
03:34PM 32.7690 -96.9620 112° Southeast 277 319 7,800 2,520 Climbing FlightAware
03:34PM 32.7680 -96.9530 98° East 286 329 8,000 2,160 Climbing FlightAware
03:34PM 32.7680 -96.9440 90° East 294 338 8,200 1,980 Climbing FlightAware
03:34PM 32.7680 -96.9370 90° East 295 339 8,400 2,160 Climbing FlightAware
03:34PM 32.7770 -96.9110 68° East 306 352 9,000 1,200 Climbing FlightAware
03:35PM 32.7880 -96.8860 62° Northeast 306 352 9,100 120 Climbing FlightAware
03:35PM 32.8030 -96.8570 58° Northeast 305 351 9,100 720 Level FlightAware
03:35PM 32.8200 -96.8260 57° Northeast 306 352 9,600 1,800 Climbing FlightAware
03:36PM 32.8430 -96.7840 57° Northeast 328 377 10,700 1,740 Climbing FlightAware
03:36PM 32.8750 -96.7230 58° Northeast 374 430 11,600 1,800 Climbing FlightAware
03:37PM 32.9100 -96.6570 58° Northeast 398 458 12,900 2,280 Climbing FlightAware
03:38PM 32.9440 -96.5940 57° Northeast 417 480 14,200 2,280 Climbing FlightAware
03:38PM 32.9800 -96.5250 58° Northeast 431 496 15,500 2,160 Climbing FlightAware
03:39PM 33.0210 -96.4470 58° Northeast 444 511 16,900 2,040 Climbing FlightAware
03:39PM 33.0580 -96.3760 58° Northeast 457 526 18,000 2,040 Climbing FlightAware
03:40PM 33.0940 -96.2920 63° Northeast 467 537 19,300 2,160 Climbing FlightAware
03:40PM 33.1180 -96.2110 70° East 474 545 20,500 2,040 Climbing FlightAware
03:41PM 33.1440 -96.1220 71° East 481 554 21,700 1,860 Climbing FlightAware
03:42PM 33.1700 -96.0320 71° East 490 564 22,800 1,800 Climbing FlightAware
03:42PM 33.1950 -95.9470 71° East 498 573 23,800 1,740 Climbing FlightAware
03:43PM 33.2220 -95.8550 71° East 505 581 24,800 1,680 Climbing FlightAware
03:43PM 33.2500 -95.7590 71° East 511 588 25,800 1,860 Climbing FlightAware
03:44PM 33.2790 -95.6600 71° East 507 583 27,100 2,040 Climbing FlightAware
03:45PM 33.3040 -95.5750 71° East 504 580 28,200 2,040 Climbing FlightAware
03:45PM 33.3300 -95.4870 71° East 499 574 29,400 1,740 Climbing FlightAware
03:46PM 33.3580 -95.3880 71° East 499 574 30,300 1,560 Climbing FlightAware
03:46PM 33.3850 -95.2950 71° East 498 573 31,300 1,440 Climbing FlightAware
03:47PM 33.4100 -95.2100 71° East 495 570 32,000 1,200 Climbing FlightAware
03:48PM 33.4370 -95.1140 71° East 499 574 32,700 1,080 Climbing FlightAware
03:48PM 33.4630 -95.0240 71° East 500 575 33,300 1,020 Climbing FlightAware
03:49PM 33.4860 -94.9420 71° East 501 577 33,900 480 Climbing FlightAware
03:49PM 33.5210 -94.8180 71° East 502 578 34,000 60 Climbing FlightAware
03:50PM 33.5450 -94.7380 70° East 502 578 34,000  Level FlightAware
03:51PM 33.5680 -94.6570 71° East 502 578 34,000  Level FlightAware
03:51PM 33.5910 -94.5740 72° East 502 578 34,000  Level FlightAware
03:52PM 33.6150 -94.4930 70° East 502 578 34,000  Level FlightAware
03:53PM 33.6380 -94.4130 71° East 502 578 34,000  Level FlightAware
03:53PM 33.6630 -94.3230 72° East 502 578 34,000  Level FlightAware
03:54PM 33.6850 -94.2470 71° East 502 578 34,000  Level FlightAware
03:54PM 33.7070 -94.1700 71° East 502 578 34,000 960 Level FlightAware
03:55PM 33.7900 -94.0120 58° Northeast 489 563 35,000 960 Climbing FlightAware
03:55PM 33.8290 -93.9350 59° Northeast 489 563 35,000  Level FlightAware
03:56PM 33.8770 -93.8380 59° Northeast 491 565 35,000  Level FlightAware
03:57PM 33.9170 -93.7570 59° Northeast 492 566 35,000  Level FlightAware
03:57PM 33.9680 -93.6540 59° Northeast 492 566 35,000  Level FlightAware
03:58PM 34.0050 -93.5800 59° Northeast 492 566 35,000  Level FlightAware
03:59PM 34.0400 -93.5080 60° Northeast 492 566 35,000  Level FlightAware
03:59PM 34.0760 -93.4360 59° Northeast 492 566 35,000  Level FlightAware
04:00PM 34.1120 -93.3640 59° Northeast 492 566 35,000  Level FlightAware
04:00PM 34.1480 -93.2920 59° Northeast 492 566 35,000  Level FlightAware
04:01PM 34.1860 -93.2160 59° Northeast 492 566 35,000  Level FlightAware
04:02PM 34.2230 -93.1410 59° Northeast 492 566 35,000  Level FlightAware
04:02PM 34.3480 -93.0720 24° Northeast 483 556 35,000  Level FlightAware
04:02PM 34.4030 -92.9970 48° Northeast 486 559 35,000  Level FlightAware
04:03PM 34.4580 -92.9220 48° Northeast 486 559 35,000  Level FlightAware
04:04PM 34.5130 -92.8450 49° Northeast 487 560 35,000  Level FlightAware
04:04PM 34.5630 -92.7770 48° Northeast 487 560 35,000  Level FlightAware
04:05PM 34.6140 -92.7050 49° Northeast 485 558 35,000  Level FlightAware
04:05PM 34.6640 -92.6350 49° Northeast 484 557 35,000  Level FlightAware
04:06PM 34.7200 -92.5580 48° Northeast 485 558 35,000  Level FlightAware
04:07PM 34.7670 -92.4930 49° Northeast 487 560 35,000  Level FlightAware
04:07PM 34.8250 -92.4100 50° Northeast 484 557 35,000  Level FlightAware
04:08PM 34.8730 -92.3430 49° Northeast 482 555 35,000  Level FlightAware
04:08PM 34.9250 -92.2700 49° Northeast 482 555 35,000  Level FlightAware
04:09PM 34.9770 -92.1980 49° Northeast 482 555 35,000  Level FlightAware
04:09PM 35.0230 -92.1320 50° Northeast 482 555 35,000  Level FlightAware
04:10PM 35.0750 -92.0590 49° Northeast 483 556 35,000  Level FlightAware
04:11PM 35.1220 -91.9930 49° Northeast 484 557 35,000  Level FlightAware
04:11PM 35.1800 -91.9100 49° Northeast 484 557 35,000  Level FlightAware
04:12PM 35.2320 -91.8360 49° Northeast 485 558 35,000  Level FlightAware
04:12PM 35.2800 -91.7670 50° Northeast 484 557 35,000  Level FlightAware
04:13PM 35.3260 -91.7150 43° Northeast 475 547 35,000  Level FlightAware
04:13PM 35.3920 -91.6570 36° Northeast 476 548 35,000  Level FlightAware
04:14PM 35.4430 -91.6120 36° Northeast 476 548 35,000  Level FlightAware
04:15PM 35.5150 -91.5480 36° Northeast 476 548 35,000  Level FlightAware
04:15PM 35.5730 -91.4970 36° Northeast 476 548 35,000  Level FlightAware
04:16PM 35.6280 -91.4470 36° Northeast 475 547 35,000  Level FlightAware
04:16PM 35.7010 -91.3820 36° Northeast 475 547 35,000  Level FlightAware
04:17PM 35.7080 -91.3760 35° Northeast 475 547 35,000  Level FlightAware
04:17PM 35.8210 -91.2740 36° Northeast 477 549 35,000  Level FlightAware
04:18PM 35.8650 -91.2160 47° Northeast 486 559 35,000  Level FlightAware
04:19PM 35.9140 -91.1380 52° Northeast 485 558 35,000  Level FlightAware
04:19PM 35.9700 -91.0500 52° Northeast 483 556 35,000  Level FlightAware
04:20PM 36.0280 -90.9550 53° Northeast 484 557 35,000  Level FlightAware
04:21PM 36.0670 -90.8930 52° Northeast 485 558 35,000  Level FlightAware
04:21PM 36.1240 -90.8010 52° Northeast 485 558 35,000  Level FlightAware
04:22PM 36.1690 -90.7290 52° Northeast 485 558 35,000  Level FlightAware
04:22PM 36.2170 -90.6510 53° Northeast 486 559 35,000  Level FlightAware
04:23PM 36.2710 -90.5630 53° Northeast 486 559 35,000  Level FlightAware
04:24PM 36.3260 -90.4740 52° Northeast 486 559 35,000  Level FlightAware
04:24PM 36.3730 -90.3970 53° Northeast 485 558 35,000  Level FlightAware
04:25PM 36.4180 -90.3230 53° Northeast 482 555 35,000  Level FlightAware
04:25PM 36.4670 -90.2440 52° Northeast 481 554 35,000  Level FlightAware
04:26PM 36.5170 -90.1620 53° Northeast 479 551 35,000  Level FlightAware
04:27PM 36.5690 -90.0750 53° Northeast 479 551 35,000  Level FlightAware
04:27PM 36.6130 -90.0030 53° Northeast 479 551 35,000  Level FlightAware
04:28PM 36.6610 -89.9240 53° Northeast 479 551 35,000  Level FlightAware
04:28PM 36.7110 -89.8420 53° Northeast 478 550 35,000  Level FlightAware
04:29PM 36.7560 -89.7660 54° Northeast 477 549 35,000  Level FlightAware
04:30PM 36.8030 -89.6890 53° Northeast 479 551 35,000  Level FlightAware
04:30PM 36.8530 -89.6050 53° Northeast 480 552 35,000  Level FlightAware
04:31PM 36.8940 -89.5380 53° Northeast 478 550 35,000  Level FlightAware
04:31PM 36.9450 -89.4520 53° Northeast 475 547 35,000  Level FlightAware
04:32PM 36.9880 -89.3800 53° Northeast 475 547 35,000  Level FlightAware
04:32PM 37.0320 -89.3040 54° Northeast 477 549 35,000  Level FlightAware
04:33PM 37.0850 -89.2150 53° Northeast 476 548 35,000  Level FlightAware
04:34PM 37.1270 -89.1440 53° Northeast 475 547 35,000  Level FlightAware
04:34PM 37.1750 -89.0640 53° Northeast 473 544 35,000  Level FlightAware
04:35PM 37.2170 -88.9920 54° Northeast 474 545 35,000  Level FlightAware
04:35PM 37.2620 -88.9140 54° Northeast 474 545 35,000  Level FlightAware
04:36PM 37.3020 -88.8470 53° Northeast 474 545 35,000  Level FlightAware
04:37PM 37.3550 -88.7560 54° Northeast 473 544 35,000  Level FlightAware
04:37PM 37.3990 -88.6810 54° Northeast 474 545 35,000  Level FlightAware
04:38PM 37.4450 -88.6020 54° Northeast 475 547 35,000  Level FlightAware
04:38PM 37.4890 -88.5260 54° Northeast 476 548 35,000  Level FlightAware
04:39PM 37.5290 -88.4580 53° Northeast 476 548 35,000  Level FlightAware
04:39PM 37.5800 -88.3690 54° Northeast 476 548 35,000  Level FlightAware
04:40PM 37.6240 -88.2930 54° Northeast 475 547 35,000  Level FlightAware
04:41PM 37.6730 -88.2080 54° Northeast 473 544 35,000  Level FlightAware
04:41PM 37.7120 -88.1400 54° Northeast 473 544 35,000  Level FlightAware
04:42PM 37.7610 -88.0540 54° Northeast 474 545 35,000  Level FlightAware
04:42PM 37.8060 -87.9750 54° Northeast 474 545 35,000  Level FlightAware
04:43PM 37.8520 -87.8950 54° Northeast 474 545 35,000  Level FlightAware
04:44PM 37.8960 -87.8160 55° Northeast 473 544 35,000  Level FlightAware
04:44PM 37.9350 -87.7460 55° Northeast 473 544 35,000  Level FlightAware
04:45PM 37.9870 -87.6540 54° Northeast 471 542 35,000  Level FlightAware
04:45PM 38.0270 -87.5820 55° Northeast 471 542 35,000  Level FlightAware
04:46PM 38.0710 -87.5030 55° Northeast 469 540 35,000  Level FlightAware
04:46PM 38.1150 -87.4250 54° Northeast 468 539 35,000  Level FlightAware
04:47PM 38.1600 -87.3440 55° Northeast 467 537 35,000  Level FlightAware
04:48PM 38.2020 -87.2690 55° Northeast 466 536 35,000  Level FlightAware
04:48PM 38.2460 -87.1890 55° Northeast 464 534 35,000  Level FlightAware
04:49PM 38.2850 -87.1180 55° Northeast 463 533 35,000  Level FlightAware
04:49PM 38.3300 -87.0370 55° Northeast 460 529 35,000  Level FlightAware
04:50PM 38.3740 -86.9570 55° Northeast 456 525 35,000  Level FlightAware
04:51PM 38.4200 -86.8740 55° Northeast 456 525 35,000  Level FlightAware
04:51PM 38.4560 -86.8080 55° Northeast 457 526 35,000  Level FlightAware
04:52PM 38.5000 -86.7270 55° Northeast 456 525 35,000  Level FlightAware
04:52PM 38.5350 -86.6630 55° Northeast 455 524 35,000  Level FlightAware
04:53PM 38.5850 -86.5710 55° Northeast 453 521 35,000  Level FlightAware
04:53PM 38.6250 -86.4960 56° Northeast 451 519 35,000  Level FlightAware
04:54PM 38.6680 -86.4170 55° Northeast 451 519 35,000  Level FlightAware
04:55PM 38.7050 -86.3490 55° Northeast 451 519 35,000  Level FlightAware
04:55PM 38.7510 -86.2640 55° Northeast 451 519 35,000  Level FlightAware
04:56PM 38.7940 -86.1840 55° Northeast 450 518 35,000  Level FlightAware
04:56PM 38.8290 -86.1180 56° Northeast 448 516 35,000  Level FlightAware
04:57PM 38.8720 -86.0370 56° Northeast 448 516 35,000  Level FlightAware
04:58PM 38.9130 -85.9600 56° Northeast 449 517 35,000  Level FlightAware
04:58PM 38.9550 -85.8820 55° Northeast 449 517 35,000  Level FlightAware
04:59PM 38.9980 -85.8020 55° Northeast 448 516 35,000  Level FlightAware
04:59PM 39.0370 -85.7290 55° Northeast 446 513 35,000  Level FlightAware
05:00PM 39.0740 -85.6580 56° Northeast 445 512 35,000  Level FlightAware
05:00PM 39.1180 -85.5740 56° Northeast 445 512 35,000  Level FlightAware
05:01PM 39.1560 -85.5030 55° Northeast 444 511 35,000  Level FlightAware
05:02PM 39.2060 -85.4060 56° Northeast 442 509 35,000  Level FlightAware
05:02PM 39.2440 -85.3340 56° Northeast 441 507 35,000  Level FlightAware
05:03PM 39.2960 -85.2350 56° Northeast 442 509 35,000  Level FlightAware
05:04PM 39.3360 -85.1580 56° Northeast 445 512 35,000  Level FlightAware
05:04PM 39.3730 -85.0870 56° Northeast 447 514 35,000  Level FlightAware
05:05PM 39.4160 -85.0040 56° Northeast 447 514 35,000  Level FlightAware
05:05PM 39.4510 -84.9350 57° Northeast 446 513 35,000  Level FlightAware
05:06PM 39.4890 -84.8630 56° Northeast 451 519 35,000  Level FlightAware
05:07PM 39.5400 -84.7630 57° Northeast 447 514 35,000  Level FlightAware
05:07PM 39.5790 -84.6860 57° Northeast 442 509 35,000  Level FlightAware
05:08PM 39.6240 -84.5980 56° Northeast 441 507 35,000  Level FlightAware
05:08PM 39.6600 -84.5290 56° Northeast 441 507 35,000  Level FlightAware
05:09PM 39.7010 -84.4470 57° Northeast 440 506 35,000  Level FlightAware
05:10PM 39.7400 -84.3710 56° Northeast 439 505 35,000  Level FlightAware
05:10PM 39.7810 -84.2900 57° Northeast 441 507 35,000  Level FlightAware
05:11PM 39.8180 -84.2160 57° Northeast 443 510 35,000  Level FlightAware
05:12PM 39.8710 -84.1120 56° Northeast 442 509 35,000  Level FlightAware
05:12PM 39.9110 -84.0310 57° Northeast 443 510 35,000  Level FlightAware
05:13PM 39.9480 -83.9580 57° Northeast 443 510 35,000  Level FlightAware
05:13PM 39.9880 -83.8790 57° Northeast 441 507 35,000  Level FlightAware
05:14PM 40.0260 -83.8010 58° Northeast 441 507 35,000  Level FlightAware
05:14PM 40.0640 -83.7260 56° Northeast 442 509 35,000  Level FlightAware
05:15PM 40.1050 -83.6420 57° Northeast 439 505 35,000  Level FlightAware
05:16PM 40.1400 -83.5710 57° Northeast 438 504 35,000  Level FlightAware
05:16PM 40.1820 -83.4860 57° Northeast 436 502 35,000  Level FlightAware
05:17PM 40.2170 -83.4150 57° Northeast 433 498 35,000  Level FlightAware
05:17PM 40.2560 -83.3360 57° Northeast 433 498 35,000  Level FlightAware
05:18PM 40.2920 -83.2620 57° Northeast 434 499 35,000  Level FlightAware
05:18PM 40.3320 -83.1810 57° Northeast 434 499 35,000  Level FlightAware
05:19PM 40.3710 -83.1020 57° Northeast 436 502 35,000  Level FlightAware
05:20PM 40.4070 -83.0280 57° Northeast 437 503 35,000  Level FlightAware
05:20PM 40.4490 -82.9410 58° Northeast 438 504 35,000  Level FlightAware
05:21PM 40.4840 -82.8680 58° Northeast 439 505 35,000  Level FlightAware
05:21PM 40.5230 -82.7860 58° Northeast 442 509 35,000  Level FlightAware
05:22PM 40.5560 -82.7010 63° Northeast 448 516 35,000  Level FlightAware
05:23PM 40.5840 -82.6230 65° Northeast 447 514 35,000  Level FlightAware
05:23PM 40.6160 -82.5350 64° Northeast 447 514 35,000  Level FlightAware
05:24PM 40.6490 -82.4450 64° Northeast 449 517 35,000  Level FlightAware
05:24PM 40.6780 -82.3660 64° Northeast 451 519 35,000  Level FlightAware
05:25PM 40.7120 -82.2720 64° Northeast 452 520 35,000  Level FlightAware
05:26PM 40.7410 -82.1900 65° Northeast 450 518 35,000  Level FlightAware
05:26PM 40.7720 -82.1040 65° Northeast 447 514 35,000  Level FlightAware
05:27PM 40.8060 -82.0090 65° Northeast 445 512 35,000  Level FlightAware
05:27PM 40.8360 -81.9260 64° Northeast 446 513 35,000  Level FlightAware
05:28PM 40.8640 -81.8460 65° Northeast 447 514 35,000  Level FlightAware
05:28PM 40.8940 -81.7610 65° Northeast 447 514 35,000  Level FlightAware
05:29PM 40.9280 -81.6650 65° Northeast 446 513 35,000  Level FlightAware
05:30PM 40.9560 -81.5870 65° Northeast 446 513 35,000  Level FlightAware
05:30PM 40.9890 -81.4930 65° Northeast 447 514 35,000  Level FlightAware
05:31PM 41.0200 -81.4040 65° Northeast 448 516 35,000  Level FlightAware
05:31PM 41.0490 -81.3220 65° Northeast 448 516 35,000  Level FlightAware
05:32PM 41.0790 -81.2370 65° Northeast 450 518 35,000  Level FlightAware
05:32PM 41.1090 -81.1480 66° East 450 518 35,000  Level FlightAware
05:33PM 41.1380 -81.0660 65° Northeast 451 519 35,000  Level FlightAware
05:34PM 41.1710 -80.9710 65° Northeast 450 518 35,000  Level FlightAware
05:34PM 41.2020 -80.8810 65° Northeast 452 520 35,000  Level FlightAware
05:35PM 41.2300 -80.8000 65° Northeast 452 520 35,000  Level FlightAware
05:35PM 41.2560 -80.7240 66° East 452 520 35,000  Level FlightAware
05:36PM 41.2890 -80.6270 66° East 452 520 35,000  Level FlightAware
05:37PM 41.3170 -80.5450 66° East 454 522 35,000  Level FlightAware
05:37PM 41.3480 -80.4540 66° East 456 525 35,000  Level FlightAware
05:38PM 41.3790 -80.3610 66° East 456 525 35,000  Level FlightAware
05:38PM 41.4080 -80.2750 66° East 457 526 35,000  Level FlightAware
05:39PM 41.4350 -80.1930 66° East 455 524 35,000  Level FlightAware
05:39PM 41.4640 -80.1080 65° Northeast 454 522 35,000  Level FlightAware
05:40PM 41.4990 -80.0010 66° East 454 522 35,000  Level FlightAware
05:41PM 41.5220 -79.9340 65° Northeast 455 524 35,000  Level FlightAware
05:41PM 41.5640 -79.8060 66° East 457 526 35,000  Level FlightAware
05:42PM 41.5950 -79.7130 66° East 457 526 35,000  Level FlightAware
05:43PM 41.6250 -79.6220 66° East 457 526 35,000  Level FlightAware
05:43PM 41.6560 -79.5290 66° East 456 525 35,000  Level FlightAware
05:44PM 41.6890 -79.4260 67° East 454 522 35,000  Level FlightAware
05:44PM 41.7190 -79.3440 64° Northeast 452 520 35,000  Level FlightAware
05:45PM 41.7630 -79.2530 57° Northeast 454 522 35,000  Level FlightAware
05:45PM 41.7930 -79.2090 48° Northeast 450 518 35,000  Level FlightAware
05:46PM 41.8360 -79.1470 47° Northeast 449 517 35,000  Level FlightAware
05:46PM 41.8880 -79.0740 46° Northeast 450 518 35,000 -1,200 Level FlightAware
05:47PM 41.9470 -79.0140 37° Northeast 444 511 33,600 -1,980 Descending FlightAware
05:47PM 41.9740 -78.9770 46° Northeast 454 522 33,200 -1,020 Descending FlightAware
05:48PM 41.9880 -78.9360 65° Northeast 461 531 33,000 -360 Descending FlightAware
05:48PM 41.9970 -78.8740 79° East 465 535 33,000  Level FlightAware
05:48PM 42.0070 -78.7830 82° East 465 535 33,000  Level FlightAware
05:49PM 42.0190 -78.6890 80° East 468 539 33,000  Level FlightAware
05:50PM 42.0330 -78.5740 81° East 469 540 33,000  Level FlightAware
05:50PM 42.0460 -78.4710 80° East 468 539 33,000  Level FlightAware
05:51PM 42.0580 -78.3800 80° East 468 539 33,000  Level FlightAware
05:51PM 42.0710 -78.2740 81° East 468 539 33,000  Level FlightAware
05:52PM 42.0820 -78.1810 81° East 469 540 33,000  Level FlightAware
05:53PM 42.0940 -78.0870 80° East 468 539 33,000  Level FlightAware
05:53PM 42.1090 -77.9730 80° East 467 537 33,000  Level FlightAware
05:54PM 42.1220 -77.8710 80° East 469 540 33,000  Level FlightAware
05:54PM 42.1350 -77.7670 80° East 470 541 33,000  Level FlightAware
05:55PM 42.1480 -77.6670 80° East 470 541 33,000  Level FlightAware
05:56PM 42.1620 -77.5630 80° East 468 539 33,000  Level FlightAware
05:56PM 42.1770 -77.4730 77° East 468 539 33,000  Level FlightAware
05:57PM 42.1940 -77.3740 77° East 467 537 33,000  Level FlightAware
05:57PM 42.2120 -77.2710 77° East 467 537 33,000  Level FlightAware
05:58PM 42.2280 -77.1800 77° East 469 540 33,000  Level FlightAware
05:58PM 42.2450 -77.0780 77° East 468 539 33,000  Level FlightAware
05:59PM 42.2620 -76.9760 77° East 470 541 33,000  Level FlightAware
06:00PM 42.2790 -76.8750 77° East 470 541 33,000  Level FlightAware
06:00PM 42.2950 -76.7750 78° East 471 542 33,000  Level FlightAware
06:01PM 42.3120 -76.6640 78° East 474 545 33,000  Level FlightAware
06:01PM 42.3180 -76.5710 85° East 476 548 33,000  Level FlightAware
06:02PM 42.3260 -76.4560 85° East 477 549 33,000  Level FlightAware
06:03PM 42.3330 -76.3550 85° East 477 549 33,000  Level FlightAware
06:03PM 42.3400 -76.2440 85° East 476 548 33,000  Level FlightAware
06:04PM 42.3460 -76.1480 85° East 477 549 33,000  Level FlightAware
06:04PM 42.3540 -76.0360 84° East 478 550 33,000  Level FlightAware
06:05PM 42.3600 -75.9410 85° East 477 549 33,000  Level FlightAware
06:05PM 42.3670 -75.8340 85° East 478 550 33,000  Level FlightAware
06:06PM 42.3740 -75.7280 85° East 478 550 33,000  Level FlightAware
06:07PM 42.3790 -75.6350 86° East 479 551 33,000  Level FlightAware
06:07PM 42.3860 -75.5270 85° East 480 552 33,000  Level FlightAware
06:08PM 42.3930 -75.4160 85° East 480 552 33,000  Level FlightAware
06:08PM 42.3990 -75.3080 86° East 480 552 33,000  Level FlightAware
06:09PM 42.4050 -75.2150 85° East 480 552 33,000  Level FlightAware
06:10PM 42.4110 -75.1090 86° East 480 552 33,000  Level FlightAware
06:10PM 42.4170 -75.0060 85° East 481 554 33,000  Level FlightAware
06:11PM 42.4220 -74.9050 86° East 482 555 33,000  Level FlightAware
06:11PM 42.4300 -74.7710 85° East 480 552 33,000  Level FlightAware
06:12PM 42.4350 -74.6680 86° East 481 554 33,000  Level FlightAware
06:13PM 42.4410 -74.5580 86° East 480 552 33,000 -120 Level FlightAware
06:13PM 42.4460 -74.4610 86° East 481 554 32,900 -540 Descending FlightAware
06:14PM 42.4520 -74.3530 86° East 482 555 32,400 -1,020 Descending FlightAware
06:14PM 42.4570 -74.2430 86° East 484 557 31,700 -1,080 Descending FlightAware
06:15PM 42.4620 -74.1460 86° East 484 557 31,200 -960 Descending FlightAware
06:16PM 42.4670 -74.0310 87° East 483 556 30,600 -1,080 Descending FlightAware
06:16PM 42.4720 -73.9310 86° East 485 558 30,000 -1,020 Descending FlightAware
06:17PM 42.4770 -73.8340 86° East 488 562 29,500 -1,020 Descending FlightAware
06:17PM 42.4820 -73.7110 87° East 486 559 28,800 -1,080 Descending FlightAware
06:18PM 42.4870 -73.6080 86° East 484 557 28,200 -1,080 Descending FlightAware
06:18PM 42.4920 -73.4980 86° East 487 560 27,600 -1,080 Descending FlightAware
06:19PM 42.4960 -73.3970 87° East 489 563 27,000 -1,020 Descending FlightAware
06:20PM 42.5000 -73.2920 87° East 483 556 26,500 -960 Descending FlightAware
06:20PM 42.5050 -73.1860 86° East 478 550 25,900 -1,020 Descending FlightAware
06:21PM 42.5080 -73.0930 87° East 472 543 25,400 -960 Descending FlightAware
06:21PM 42.5130 -72.9800 87° East 468 539 24,800 -900 Descending FlightAware
06:22PM 42.5127 -72.9799 171° South 467 537 24,600 -540 Descending FlightAware ADS-B (KSNC)
06:23PM 42.5200 -72.7710 87° East 463 533 24,200 -480 Descending FlightAware
06:23PM 42.5216 -72.7406 86° East 464 534 24,100 -300 Descending FlightAware ADS-B (KSNC)
06:23PM 42.5251 -72.6469 87° East 464 534 24,000 -1,200 Descending FlightAware ADS-B (KSNC)
06:24PM 42.5287 -72.5461 87° East 461 531 22,800 -2,400 Descending FlightAware ADS-B (KSNC)
06:24PM 42.5321 -72.4470 87° East 448 516 21,200 -2,460 Descending FlightAware ADS-B (KSNC)
06:25PM 42.5346 -72.3732 87° East 437 503 20,100 -2,220 Descending FlightAware ADS-B (KSNC)
06:26PM 42.5379 -72.2689 88° East 427 491 18,800 -2,220 Descending FlightAware ADS-B (KSNC)
06:26PM 42.5412 -72.1622 88° East 414 476 17,400 -2,040 Descending FlightAware ADS-B (KSNC)
06:27PM 42.5400 -72.0050 91° East 404 465 15,400 -1,980 Descending FlightAware
06:27PM 42.5440 -72.0623 275° West 405 466 14,900 -1,980 Descending FlightAware ADS-B (KSNC)
06:28PM 42.5250 -71.8440 97° East 392 451 13,300 -1,920 Descending FlightAware
06:29PM 42.5160 -71.7510 97° East 383 441 12,100 -1,800 Descending FlightAware
06:30PM 42.5080 -71.6690 98° East 376 433 11,100 -1,020 Descending FlightAware
06:30PM 42.5000 -71.5840 97° East 367 422 10,900 -240 Descending FlightAware
06:30PM 42.4962 -71.5405 97° East 367 422 10,900 -540 Level FlightAware ADS-B (KBOS)
06:31PM 42.4888 -71.4623 97° East 330 380 10,400 -540 Descending FlightAware ADS-B (KBOS)
06:32PM 42.4806 -71.3764 97° East 281 323 10,200 -600 Descending FlightAware ADS-B (KBOS)
06:32PM 42.4782 -71.3490 97° East 277 319 9,800 -1,680 Descending FlightAware ADS-B (KBOS)
06:32PM 42.4760 -71.3239 97° East 277 319 9,200 -1,560 Descending FlightAware ADS-B (KBOS)
06:33PM 42.4730 -71.2903 97° East 276 318 8,900 -1,200 Descending FlightAware ADS-B (KBOS)
06:33PM 42.4685 -71.2413 97° East 278 320 8,300 -1,080 Descending FlightAware ADS-B (KBOS)
06:33PM 42.4656 -71.2115 98° East 276 318 8,100 -900 Descending FlightAware ADS-B (KBOS)
06:34PM 42.4580 -71.1329 97° East 276 318 7,400 -960 Descending FlightAware ADS-B (KBOS)
06:35PM 42.4533 -71.0822 97° East 255 293 6,900 -720 Descending FlightAware ADS-B (KBOS)
06:35PM 42.4512 -71.0591 97° East 243 280 6,900  Level FlightAware ADS-B (KBOS)
06:35PM 42.4470 -71.0331 102° East 239 275 6,900  Level FlightAware ADS-B (KBOS)
06:35PM 42.4352 -71.0165 134° Southeast 242 278 6,900  Level FlightAware ADS-B (KBOS)
06:36PM 42.4062 -70.9969 153° Southeast 240 276 6,900  Level FlightAware ADS-B (KBOS)
06:37PM 42.3730 -70.9760 155° Southeast 242 278 6,900 -240 Level FlightAware
06:37PM 42.3510 -70.9620 155° Southeast 244 281 6,700 -900 Descending FlightAware
06:37PM 42.3310 -70.9490 154° Southeast 242 278 6,300 -1,200 Descending FlightAware
06:37PM 42.3269 -70.9466 157° South 242 278 6,200 -1,200 Descending FlightAware ADS-B (KBOS)
06:38PM 42.3116 -70.9385 159° South 246 283 5,900 -1,320 Descending FlightAware ADS-B (KBOS)
06:38PM 42.2955 -70.9408 186° South 247 284 5,600 -1,440 Descending FlightAware ADS-B (KBOS)
06:38PM 42.2769 -70.9491 198° South 246 283 5,200 -1,260 Descending FlightAware ADS-B (KBOS)
06:38PM 42.2598 -70.9571 199° South 244 281 4,900 -1,200 Descending FlightAware ADS-B (KBOS)
06:39PM 42.2240 -70.9740 199° South 241 277 4,200 -1,140 Descending FlightAware
06:39PM 42.2020 -70.9830 197° South 239 275 3,900 -1,080 Descending FlightAware
06:40PM 42.1810 -70.9920 198° South 235 270 3,500 -1,320 Descending FlightAware
06:40PM 42.1740 -70.9980 212° Southwest 233 268 3,300 -1,140 Descending FlightAware
06:40PM 42.1700 -71.0030 223° Southwest 229 264 3,200 -1,140 Descending FlightAware
06:40PM 42.1660 -71.0100 232° Southwest 226 260 3,100 -960 Descending FlightAware
06:40PM 42.1630 -71.0210 250° West 217 250 3,000 -480 Descending FlightAware
06:40PM 42.1630 -71.0280 270° West 213 245 3,000 -240 Level FlightAware
06:41PM 42.1730 -71.0540 297° West 200 230 2,900 -180 Descending FlightAware
06:41PM 42.1880 -71.0690 323° Northwest 197 227 2,900 -240 Level FlightAware
06:41PM 42.1940 -71.0710 346° North 193 222 2,800 -840 Descending FlightAware
06:41PM 42.2130 -71.0740 353° North 181 208 2,500 -960 Descending FlightAware
06:42PM 42.2370 -71.0670 12° North 178 205 2,000 -660 Descending FlightAware
06:42PM 42.2560 -71.0580 19° North 179 206 1,900 -540 Descending FlightAware
06:43PM 42.2730 -71.0500 19° North 183 211 1,600 -960 Descending FlightAware
06:43PM 42.2860 -71.0430 22° Northeast 168 193 1,300 -900 Descending FlightAware
06:43PM 42.3020 -71.0360 18° North 148 170 1,000 -840 Descending FlightAware
06:44PM 42.3150 -71.0290 22° Northeast 133 153 700 -780 Descending FlightAware
06:44PM 42.3250 -71.0250 16° North 136 157 500 -720 Descending FlightAware
06:44PM 42.3410 -71.0170 20° North 131 151 200 -360 Descending FlightAware
06:45PM 42.3530 -71.0110 20° North 131 151 200  Level FlightAware
06:52PM 42.3500 -71.0000 North  Level FlightAware Approximate